Time;durP1;ratioP1;P1;durP2;ratioP2;P2;SDS_P1;SDS_P2;PMS_P1;PMS_P2;Temp;Humidity;BMP_temperature;BMP_pressure;BME280_temperature;BME280_humidity;BME280_pressure;Samples;Min_cycle;Max_cycle;Signal;HPM_P1;HPM_P2
2022/07/24 00:03:12;;;;;;;7.35;2.35;;;31.90;56.30;;;;;;10833511;32;20393;-70
2022/07/24 00:09:15;;;;;;;5.65;2.12;;;31.60;57.00;;;;;;10832796;32;20035;-71
2022/07/24 00:15:17;;;;;;;4.78;2.75;;;31.40;57.40;;;;;;10828994;32;20057;-70
2022/07/24 00:21:20;;;;;;;3.33;2.10;;;31.30;58.30;;;;;;10830894;32;20019;-70
2022/07/24 00:27:21;;;;;;;3.67;2.15;;;31.10;59.00;;;;;;10832684;32;20443;-69
2022/07/24 00:33:24;;;;;;;4.62;2.03;;;31.00;59.20;;;;;;10832533;32;20062;-70
2022/07/24 00:39:25;;;;;;;3.22;2.17;;;30.90;59.00;;;;;;10829417;32;20028;-69
2022/07/24 00:45:56;;;;;;;1.00;0.82;;;31.00;59.40;;;;;;10829315;32;20047;-72
2022/07/24 00:51:58;;;;;;;3.67;1.83;;;31.10;58.90;;;;;;10828142;32;20059;-72
2022/07/24 00:58:01;;;;;;;3.60;1.50;;;31.10;58.50;;;;;;10824959;32;20055;-72
2022/07/24 01:04:03;;;;;;;4.18;1.80;;;31.20;58.40;;;;;;10828082;32;20028;-70
2022/07/24 01:10:06;;;;;;;1.77;1.08;;;31.30;58.10;;;;;;10827140;32;20039;-72
2022/07/24 01:16:09;;;;;;;2.30;1.75;;;31.20;58.00;;;;;;10831274;32;20340;-72
2022/07/24 01:22:11;;;;;;;3.75;1.37;;;31.10;57.60;;;;;;10829316;32;20302;-72
2022/07/24 01:28:13;;;;;;;3.00;1.85;;;31.10;57.40;;;;;;10830394;32;20028;-72
2022/07/24 01:34:15;;;;;;;1.92;1.10;;;31.00;57.70;;;;;;10830372;32;20046;-72
2022/07/24 01:40:17;;;;;;;3.33;1.55;;;30.90;57.80;;;;;;10830353;32;20024;-71
2022/07/24 01:46:19;;;;;;;2.15;1.17;;;30.90;58.20;;;;;;10830283;32;20337;-72
2022/07/24 01:52:24;;;;;;;3.85;1.58;;;30.80;58.30;;;;;;10830115;32;20107;-72
2022/07/24 01:58:27;;;;;;;2.45;1.52;;;30.80;57.80;;;;;;10829976;33;20028;-72
2022/07/24 02:04:30;;;;;;;2.28;1.48;;;30.80;57.50;;;;;;10829806;33;20042;-72
2022/07/24 02:10:32;;;;;;;2.15;1.23;;;30.80;57.60;;;;;;10829676;33;20401;-70
2022/07/24 02:16:34;;;;;;;1.95;1.10;;;30.70;57.80;;;;;;10829775;33;20016;-71
2022/07/24 02:22:37;;;;;;;1.87;1.25;;;30.60;58.10;;;;;;10829742;33;20028;-72
2022/07/24 02:28:39;;;;;;;1.77;1.48;;;30.60;58.00;;;;;;10829416;32;20340;-72
2022/07/24 02:34:41;;;;;;;2.10;1.27;;;30.40;58.10;;;;;;10836348;32;20393;-72
2022/07/24 02:40:43;;;;;;;1.67;1.45;;;30.40;58.10;;;;;;10836478;32;20028;-72
2022/07/24 02:46:45;;;;;;;2.37;1.60;;;30.30;58.20;;;;;;10835216;32;20031;-72
2022/07/24 02:52:48;;;;;;;2.47;1.60;;;30.20;58.30;;;;;;10836129;32;20145;-72
2022/07/24 02:58:50;;;;;;;2.62;1.33;;;30.10;58.50;;;;;;10835785;32;20050;-72
2022/07/24 03:04:52;;;;;;;2.87;1.30;;;30.00;58.20;;;;;;10835637;32;20332;-72
2022/07/24 03:10:58;;;;;;;1.83;1.40;;;30.10;58.00;;;;;;10835363;32;20052;-72
2022/07/24 03:17:00;;;;;;;1.85;1.40;;;30.00;58.20;;;;;;10834313;32;20332;-72
2022/07/24 03:23:02;;;;;;;1.60;1.17;;;30.00;58.30;;;;;;10835056;32;20047;-72
2022/07/24 03:29:04;;;;;;;4.87;1.42;;;30.00;58.30;;;;;;10834889;32;20321;-72
2022/07/24 03:35:06;;;;;;;2.95;1.87;;;29.90;58.10;;;;;;10834500;32;20054;-72
2022/07/24 03:41:08;;;;;;;3.55;1.98;;;29.90;57.90;;;;;;10833678;32;20012;-72
2022/07/24 03:47:10;;;;;;;1.80;1.20;;;29.90;58.00;;;;;;10834020;32;20032;-72
2022/07/24 03:53:12;;;;;;;4.03;2.20;;;29.80;58.20;;;;;;10833910;32;20016;-72
2022/07/24 03:59:14;;;;;;;3.62;2.20;;;29.80;58.10;;;;;;10833711;32;20050;-72
2022/07/24 04:05:37;;;;;;;1.92;1.40;;;29.70;58.10;;;;;;10833616;32;20047;-73
2022/07/24 04:11:39;;;;;;;2.75;1.70;;;29.60;58.10;;;;;;10833332;32;20093;-72
2022/07/24 04:17:43;;;;;;;4.12;1.87;;;29.60;58.00;;;;;;10832976;32;20028;-72
2022/07/24 04:23:45;;;;;;;4.50;2.47;;;29.60;58.20;;;;;;10832846;32;20023;-72
2022/07/24 04:29:47;;;;;;;1.87;1.55;;;29.70;57.90;;;;;;10855936;27;20028;-72
2022/07/24 04:35:49;;;;;;;1.55;1.23;;;29.70;57.50;;;;;;10869451;32;20028;-72
2022/07/24 04:41:51;;;;;;;1.92;1.48;;;29.80;57.50;;;;;;10856096;32;20430;-71
2022/07/24 04:47:53;;;;;;;4.60;1.83;;;29.70;57.60;;;;;;10869050;32;20028;-72
2022/07/24 04:53:55;;;;;;;2.40;1.35;;;29.70;57.70;;;;;;10868692;32;20023;-72
2022/07/24 04:59:57;;;;;;;4.62;1.67;;;29.80;57.40;;;;;;10868699;32;20042;-72
2022/07/24 05:05:59;;;;;;;4.20;2.03;;;29.80;57.20;;;;;;10868420;32;20054;-71
2022/07/24 05:12:52;;;;;;;2.17;1.35;;;29.90;57.10;;;;;;10611093;33;20052;-72
2022/07/24 05:19:06;;;;;;;2.03;1.35;;;29.80;57.30;;;;;;10609941;33;20026;-71
2022/07/24 05:25:08;;;;;;;3.08;2.03;;;29.80;57.10;;;;;;10609673;33;20405;-72
2022/07/24 05:31:10;;;;;;;3.65;1.60;;;29.90;57.50;;;;;;10609681;33;20057;-72
2022/07/24 05:37:13;;;;;;;1.75;1.40;;;29.90;57.60;;;;;;10610369;33;20056;-71
2022/07/24 05:43:16;;;;;;;2.08;1.25;;;30.00;57.60;;;;;;10609986;33;20355;-72
2022/07/24 05:49:18;;;;;;;1.62;1.25;;;30.10;57.50;;;;;;10828577;32;20036;-71
2022/07/24 05:55:41;;;;;;;1.60;1.35;;;30.20;57.40;;;;;;10867178;32;20019;-72
2022/07/24 06:02:06;;;;;;;1.37;1.00;;;30.30;57.30;;;;;;10866997;32;20027;-72
2022/07/24 06:08:09;;;;;;;2.40;1.42;;;30.40;57.20;;;;;;10871992;32;20042;-72
2022/07/24 06:14:11;;;;;;;1.80;1.10;;;30.50;57.10;;;;;;10874260;32;20071;-72
2022/07/24 06:20:13;;;;;;;2.70;1.50;;;30.60;56.90;;;;;;10869943;32;20020;-71
2022/07/24 06:26:15;;;;;;;2.53;1.42;;;30.70;56.70;;;;;;10873226;32;20442;-72
2022/07/24 06:32:17;;;;;;;3.10;1.33;;;30.80;56.40;;;;;;10870895;32;20042;-72
2022/07/24 06:38:19;;;;;;;1.45;1.17;;;30.90;56.20;;;;;;10860471;32;20426;-72
2022/07/24 06:44:22;;;;;;;1.83;1.23;;;31.00;56.20;;;;;;10873530;32;20427;-71
2022/07/24 06:50:24;;;;;;;1.45;1.00;;;31.20;56.20;;;;;;10871809;32;20043;-72
2022/07/24 06:56:26;;;;;;;3.95;0.93;;;31.30;55.90;;;;;;10872956;32;20430;-68
2022/07/24 07:02:28;;;;;;;1.80;1.27;;;31.30;55.70;;;;;;10872945;32;20431;-72
2022/07/24 07:08:30;;;;;;;2.08;1.48;;;31.40;55.70;;;;;;10872625;32;20047;-70
2022/07/24 07:14:37;;;;;;;2.65;1.85;;;31.50;55.10;;;;;;10872370;32;20054;-70
2022/07/24 07:20:39;;;;;;;4.50;2.62;;;31.70;54.80;;;;;;10871157;32;20016;-71
2022/07/24 07:26:41;;;;;;;2.75;2.25;;;31.70;54.20;;;;;;10869140;32;20055;-71
2022/07/24 07:32:43;;;;;;;2.80;2.25;;;31.80;54.30;;;;;;10857287;32;20051;-69
2022/07/24 07:38:46;;;;;;;3.70;2.40;;;31.90;54.20;;;;;;10867455;32;20036;-70
2022/07/24 07:44:48;;;;;;;6.00;1.75;;;32.00;54.50;;;;;;10871451;32;20023;-69
2022/07/24 07:50:50;;;;;;;8.73;2.65;;;32.00;54.00;;;;;;10871122;32;20019;-70
2022/07/24 07:56:52;;;;;;;3.55;2.25;;;32.20;53.50;;;;;;10866776;32;20062;-72
2022/07/24 08:03:09;;;;;;;3.55;2.42;;;32.40;52.50;;;;;;10870596;32;20058;-73
2022/07/24 08:09:11;;;;;;;2.77;2.07;;;32.50;51.50;;;;;;10869262;32;20023;-73
2022/07/24 08:15:22;;;;;;;3.95;2.65;;;32.70;51.30;;;;;;10870195;32;20369;-73
2022/07/24 08:22:06;;;;;;;3.53;2.55;;;32.80;51.00;;;;;;10870087;32;20264;-73
2022/07/24 08:28:08;;;;;;;3.97;3.00;;;32.80;50.40;;;;;;10719383;33;20032;-72
2022/07/24 08:34:46;;;;;;;5.22;2.85;;;32.90;49.40;;;;;;10612146;33;20048;-72
2022/07/24 08:40:49;;;;;;;4.47;3.08;;;33.10;48.50;;;;;;10611445;33;20336;-73
2022/07/24 08:47:17;;;;;;;4.53;3.22;;;33.10;47.80;;;;;;10611352;33;20064;-73
2022/07/24 08:53:21;;;;;;;4.97;3.08;;;33.30;47.10;;;;;;10611145;33;20041;-72
2022/07/24 08:59:29;;;;;;;3.58;2.22;;;33.30;46.60;;;;;;10611316;33;20320;-72
2022/07/24 09:05:34;;;;;;;5.12;3.37;;;33.50;46.50;;;;;;10839045;32;20047;-71
2022/07/24 09:11:37;;;;;;;8.35;3.78;;;33.60;46.20;;;;;;10843148;32;20050;-73
2022/07/24 09:17:54;;;;;;;4.68;2.95;;;33.60;46.70;;;;;;10868200;32;20063;-71
2022/07/24 09:24:01;;;;;;;5.47;3.62;;;33.80;45.70;;;;;;10854716;32;20393;-71
2022/07/24 09:30:05;;;;;;;8.52;3.70;;;33.90;45.40;;;;;;10866181;32;20020;-73
2022/07/24 09:36:18;;;;;;;6.72;3.53;;;34.00;44.90;;;;;;10867530;32;20093;-72
2022/07/24 09:42:29;;;;;;;6.53;3.35;;;34.20;44.90;;;;;;10866848;32;20392;-72
2022/07/24 09:48:36;;;;;;;6.62;4.75;;;34.40;44.90;;;;;;10867232;32;20078;-73
2022/07/24 09:54:41;;;;;;;6.82;3.58;;;34.50;44.40;;;;;;10866392;32;20349;-73
2022/07/24 10:00:43;;;;;;;6.25;3.78;;;34.60;44.00;;;;;;10867148;32;20038;-73
2022/07/24 10:06:47;;;;;;;5.85;3.92;;;34.80;44.10;;;;;;10866818;32;20019;-72
2022/07/24 10:12:49;;;;;;;8.25;4.25;;;34.90;43.70;;;;;;10866839;32;20049;-71
2022/07/24 10:18:54;;;;;;;5.28;3.92;;;34.90;44.50;;;;;;10866742;32;20051;-72
2022/07/24 10:25:00;;;;;;;5.70;3.62;;;35.10;45.10;;;;;;10865444;32;20058;-72
2022/07/24 10:31:05;;;;;;;4.62;3.20;;;35.30;43.60;;;;;;10866498;32;20077;-70
2022/07/24 10:37:44;;;;;;;7.25;4.75;;;35.40;43.10;;;;;;10866436;32;20019;-72
2022/07/24 10:44:17;;;;;;;4.18;3.12;;;35.60;41.70;;;;;;10865429;32;20054;-71
2022/07/24 10:50:19;;;;;;;6.72;4.87;;;35.80;42.20;;;;;;10866643;32;20050;-73
2022/07/24 10:56:28;;;;;;;4.80;3.50;;;35.90;43.20;;;;;;10873177;32;20175;-72
2022/07/24 11:02:32;;;;;;;5.37;3.30;;;35.90;43.20;;;;;;10859619;32;20297;-72
2022/07/24 11:08:49;;;;;;;5.47;3.58;;;36.20;41.60;;;;;;10859253;32;20011;-72
2022/07/24 11:14:51;;;;;;;4.97;3.35;;;36.40;41.20;;;;;;10872406;32;20059;-73
2022/07/24 11:21:00;;;;;;;6.22;3.22;;;36.80;40.10;;;;;;10872310;32;20356;-73
2022/07/24 11:27:13;;;;;;;6.60;4.28;;;36.90;39.40;;;;;;10867737;32;20054;-72
2022/07/24 11:33:33;;;;;;;4.93;3.53;;;37.00;38.50;;;;;;10871711;32;20023;-72
2022/07/24 11:39:39;;;;;;;4.32;2.75;;;37.30;38.10;;;;;;10871471;32;20024;-69
2022/07/24 11:45:51;;;;;;;6.95;4.32;;;37.40;38.70;;;;;;10871357;32;20008;-70
2022/07/24 11:51:55;;;;;;;5.40;2.90;;;37.70;38.40;;;;;;10871145;32;20414;-70
2022/07/24 11:57:57;;;;;;;4.40;3.37;;;37.80;36.60;;;;;;10870967;32;20065;-70
2022/07/24 12:04:00;;;;;;;6.32;4.32;;;38.00;35.70;;;;;;10870144;32;20058;-69
2022/07/24 12:10:04;;;;;;;4.85;2.80;;;38.10;35.00;;;;;;10870525;32;20057;-70
2022/07/24 12:16:06;;;;;;;5.70;3.00;;;38.10;34.90;;;;;;10857029;32;20038;-69
2022/07/24 12:22:08;;;;;;;4.68;2.78;;;38.20;34.10;;;;;;10870086;32;20054;-71
2022/07/24 12:28:18;;;;;;;4.80;3.08;;;38.30;33.50;;;;;;10850731;27;20353;-71
2022/07/24 12:34:21;;;;;;;4.60;3.37;;;38.30;33.70;;;;;;10832352;32;20024;-71
2022/07/24 12:40:33;;;;;;;4.37;3.37;;;38.30;33.50;;;;;;10833652;32;20024;-71
2022/07/24 12:46:38;;;;;;;5.10;2.53;;;38.30;33.50;;;;;;10831985;32;20344;-70
2022/07/24 12:52:40;;;;;;;5.00;3.03;;;38.20;33.30;;;;;;10831945;32;20020;-70
2022/07/24 12:58:50;;;;;;;3.22;2.47;;;38.20;32.90;;;;;;10831952;32;20078;-71
2022/07/24 13:04:56;;;;;;;3.62;2.60;;;38.10;32.50;;;;;;10831592;32;20043;-71
2022/07/24 13:10:58;;;;;;;6.60;3.27;;;38.20;32.20;;;;;;10831100;32;20066;-71
2022/07/24 13:17:10;;;;;;;6.65;2.47;;;38.10;31.80;;;;;;10831106;32;20038;-71
2022/07/24 13:23:13;;;;;;;5.68;2.40;;;38.10;32.40;;;;;;10830871;32;20039;-71
2022/07/24 13:29:15;;;;;;;6.22;3.60;;;38.20;31.80;;;;;;10830998;32;20050;-70
2022/07/24 13:35:29;;;;;;;3.33;2.15;;;38.20;31.30;;;;;;10830309;32;20054;-71
2022/07/24 13:41:31;;;;;;;6.35;3.83;;;38.20;31.80;;;;;;10830487;32;20016;-71
2022/07/24 13:47:33;;;;;;;5.05;3.17;;;38.20;32.20;;;;;;10830128;32;20028;-71
2022/07/24 13:53:36;;;;;;;3.92;2.22;;;38.10;32.10;;;;;;10829962;32;20028;-71
2022/07/24 13:59:38;;;;;;;5.82;2.60;;;38.10;32.00;;;;;;10830051;32;20016;-71
2022/07/24 14:05:41;;;;;;;3.30;2.10;;;38.10;31.90;;;;;;10829797;33;20043;-71
2022/07/24 14:11:43;;;;;;;3.35;2.42;;;38.10;31.90;;;;;;10826882;33;20062;-72
2022/07/24 14:17:46;;;;;;;3.15;2.00;;;38.00;31.60;;;;;;10796618;32;20616;-69
2022/07/24 14:24:16;;;;;;;4.87;3.50;;;38.10;31.70;;;;;;10812284;33;20016;-70
2022/07/24 14:30:18;;;;;;;4.05;2.45;;;38.20;31.70;;;;;;10651225;33;20037;-71
2022/07/24 14:36:20;;;;;;;5.35;2.65;;;38.20;31.90;;;;;;10638897;33;20044;-71
2022/07/24 14:42:41;;;;;;;3.40;2.58;;;38.10;31.60;;;;;;10650451;33;20169;-70
2022/07/24 14:48:43;;;;;;;6.60;2.78;;;38.00;31.80;;;;;;10646317;33;20386;-70
2022/07/24 14:54:47;;;;;;;3.97;2.58;;;38.10;31.90;;;;;;10639130;33;20060;-70
2022/07/24 15:00:50;;;;;;;4.00;2.83;;;38.00;31.80;;;;;;10650248;33;20504;-70
2022/07/24 15:06:52;;;;;;;5.20;3.00;;;38.00;31.90;;;;;;10792182;32;20325;-72
2022/07/24 15:12:54;;;;;;;3.40;2.25;;;37.90;31.80;;;;;;10835382;32;20047;-70
2022/07/24 15:18:56;;;;;;;4.82;2.92;;;37.90;31.70;;;;;;10834349;32;20016;-70
2022/07/24 15:24:58;;;;;;;6.53;3.42;;;37.90;32.10;;;;;;10830601;32;20019;-70
2022/07/24 15:31:21;;;;;;;3.40;2.10;;;38.00;32.10;;;;;;10834546;32;20028;-70
2022/07/24 15:37:23;;;;;;;4.18;2.80;;;38.10;32.00;;;;;;10833357;32;20020;-70
2022/07/24 15:43:25;;;;;;;3.67;2.75;;;38.10;31.90;;;;;;10817520;32;20059;-70
2022/07/24 15:49:27;;;;;;;4.35;3.22;;;38.10;32.10;;;;;;10834055;32;20050;-70
2022/07/24 15:55:29;;;;;;;4.37;3.10;;;38.20;32.00;;;;;;10834057;32;20024;-70
2022/07/24 16:01:32;;;;;;;7.90;3.72;;;38.00;31.80;;;;;;10832713;32;20024;-71
2022/07/24 16:07:34;;;;;;;4.22;2.92;;;38.10;32.10;;;;;;10833441;32;20058;-70
2022/07/24 16:13:36;;;;;;;5.25;2.95;;;37.90;32.50;;;;;;10833381;32;20432;-70
2022/07/24 16:19:39;;;;;;;5.40;2.28;;;37.90;32.20;;;;;;10833131;32;20050;-70
2022/07/24 16:26:09;;;;;;;3.42;2.20;;;37.90;32.10;;;;;;10833034;32;20062;-70
2022/07/24 16:32:11;;;;;;;5.12;2.62;;;38.00;32.10;;;;;;10832603;32;20020;-70
2022/07/24 16:38:14;;;;;;;3.55;2.40;;;38.00;32.30;;;;;;10832324;32;20038;-70
2022/07/24 16:44:16;;;;;;;2.40;1.95;;;38.10;32.40;;;;;;10832056;32;20016;-71
2022/07/24 16:50:18;;;;;;;4.28;2.53;;;38.10;32.50;;;;;;10831701;32;20337;-71
2022/07/24 16:56:21;;;;;;;6.05;2.40;;;38.10;32.70;;;;;;10831634;32;20042;-71
2022/07/24 17:02:23;;;;;;;3.72;2.45;;;38.00;32.70;;;;;;10831545;32;20063;-71
2022/07/24 17:08:25;;;;;;;3.85;2.67;;;38.00;32.70;;;;;;10831297;32;20431;-71
2022/07/24 17:14:28;;;;;;;5.30;3.35;;;37.90;32.70;;;;;;10831086;32;20039;-71
2022/07/24 17:20:31;;;;;;;4.93;2.60;;;37.90;32.80;;;;;;10830064;32;20032;-71
2022/07/24 17:26:34;;;;;;;3.60;2.10;;;37.90;33.10;;;;;;10830846;32;20019;-71
2022/07/24 17:32:37;;;;;;;3.30;2.45;;;37.80;33.10;;;;;;10829755;32;20023;-71
2022/07/24 17:38:40;;;;;;;4.72;2.40;;;37.70;33.30;;;;;;10830634;32;20028;-71
2022/07/24 17:44:42;;;;;;;6.05;1.98;;;37.70;33.50;;;;;;10826144;33;20020;-71
2022/07/24 17:50:44;;;;;;;2.65;1.50;;;37.80;33.40;;;;;;10830264;32;20028;-71
2022/07/24 17:56:46;;;;;;;4.05;1.87;;;38.50;32.50;;;;;;10829963;32;20024;-71
2022/07/24 18:02:48;;;;;;;2.60;1.50;;;39.40;31.80;;;;;;10829567;32;20028;-72
2022/07/24 18:08:51;;;;;;;3.83;2.22;;;39.40;31.70;;;;;;10829856;33;20031;-72
2022/07/24 18:15:13;;;;;;;2.55;1.65;;;39.20;32.00;;;;;;10829807;33;20040;-71
2022/07/24 18:21:16;;;;;;;3.33;2.00;;;38.30;33.10;;;;;;10829744;33;20024;-71
2022/07/24 18:27:18;;;;;;;2.62;1.62;;;37.50;34.20;;;;;;10829417;32;20036;-71
2022/07/24 18:33:20;;;;;;;3.15;1.75;;;37.00;34.80;;;;;;10829254;33;20036;-71
2022/07/24 18:39:35;;;;;;;3.28;2.12;;;36.60;35.30;;;;;;10829307;33;20094;-71
2022/07/24 18:45:38;;;;;;;2.30;1.45;;;36.30;35.80;;;;;;10827452;33;20412;-72
2022/07/24 18:51:40;;;;;;;3.80;2.20;;;36.00;36.20;;;;;;10828956;33;20040;-72
2022/07/24 18:57:42;;;;;;;2.83;1.50;;;35.80;36.70;;;;;;10828936;33;20020;-72
2022/07/24 19:03:44;;;;;;;2.42;1.58;;;35.60;37.10;;;;;;10828461;33;20031;-73
2022/07/24 19:09:47;;;;;;;2.37;1.58;;;35.40;37.40;;;;;;10828677;33;20020;-73
2022/07/24 19:15:49;;;;;;;2.42;1.33;;;35.30;37.70;;;;;;10834148;32;20198;-72
2022/07/24 19:21:51;;;;;;;8.98;1.92;;;35.10;38.10;;;;;;10833809;32;20020;-72
2022/07/24 19:27:53;;;;;;;2.80;1.55;;;34.90;38.40;;;;;;10834827;32;20063;-72
2022/07/24 19:33:55;;;;;;;4.45;2.15;;;34.80;38.90;;;;;;10834559;32;20028;-72
2022/07/24 19:39:57;;;;;;;3.25;2.00;;;34.70;39.20;;;;;;10834559;32;20059;-72
2022/07/24 19:46:00;;;;;;;4.25;1.92;;;34.60;39.60;;;;;;10834305;32;20024;-72
2022/07/24 19:52:02;;;;;;;6.25;1.83;;;34.40;40.00;;;;;;10834101;32;20036;-71
2022/07/24 19:58:04;;;;;;;4.45;2.55;;;34.40;40.30;;;;;;10833836;32;20309;-71
2022/07/24 20:04:06;;;;;;;9.82;2.20;;;34.30;40.80;;;;;;10833682;32;20062;-72
2022/07/24 20:10:09;;;;;;;4.30;2.00;;;34.20;40.90;;;;;;10833415;32;20032;-72
2022/07/24 20:16:10;;;;;;;3.05;1.83;;;34.10;41.90;;;;;;10833246;32;20028;-72
2022/07/24 20:22:13;;;;;;;3.37;2.08;;;34.00;42.50;;;;;;10833193;32;20024;-72
2022/07/24 20:28:16;;;;;;;4.20;2.37;;;33.90;42.70;;;;;;10482242;27;11999658;-72
2022/07/24 20:34:18;;;;;;;5.45;2.75;;;33.80;43.60;;;;;;10866635;32;20058;-72
2022/07/24 20:40:21;;;;;;;3.05;1.83;;;33.60;44.90;;;;;;10862335;32;20027;-72
2022/07/24 20:46:23;;;;;;;4.30;2.50;;;33.60;44.90;;;;;;10865592;32;20031;-72
2022/07/24 20:53:10;;;;;;;4.93;2.60;;;33.40;45.10;;;;;;10864569;32;20115;-72
2022/07/24 20:59:12;;;;;;;6.83;3.33;;;33.40;45.30;;;;;;10869041;32;20055;-72
2022/07/24 21:05:14;;;;;;;6.35;2.50;;;33.30;45.40;;;;;;10868766;32;20224;-72
2022/07/24 21:11:51;;;;;;;5.25;2.35;;;33.30;45.90;;;;;;10868214;32;20020;-72
2022/07/24 21:18:17;;;;;;;4.43;2.65;;;33.30;46.10;;;;;;10868739;32;20027;-72
2022/07/24 21:24:19;;;;;;;3.22;2.22;;;33.20;46.10;;;;;;10867834;32;20028;-72
2022/07/24 21:30:21;;;;;;;7.53;3.08;;;33.10;46.90;;;;;;10867793;32;20028;-72
2022/07/24 21:36:23;;;;;;;3.85;2.67;;;33.00;47.00;;;;;;10867138;32;20474;-72
2022/07/24 21:42:25;;;;;;;4.05;2.42;;;32.80;47.50;;;;;;10867630;32;20327;-72
2022/07/24 21:48:28;;;;;;;3.97;2.10;;;32.80;47.50;;;;;;10867376;32;20050;-72
2022/07/24 21:54:30;;;;;;;4.20;2.75;;;32.60;47.70;;;;;;10867217;32;20031;-72
2022/07/24 22:00:38;;;;;;;4.70;2.50;;;32.40;48.10;;;;;;10867184;32;20020;-72
2022/07/24 22:06:40;;;;;;;8.57;2.40;;;32.50;47.70;;;;;;10867027;32;20019;-72
2022/07/24 22:12:42;;;;;;;5.12;3.15;;;32.50;48.20;;;;;;10851336;32;20032;-72
2022/07/24 22:18:44;;;;;;;3.47;2.35;;;32.40;48.40;;;;;;10829776;33;20058;-72
2022/07/24 22:24:47;;;;;;;3.45;2.17;;;32.30;48.60;;;;;;10829747;33;20408;-72
2022/07/24 22:30:49;;;;;;;3.97;3.08;;;32.30;48.90;;;;;;10829448;33;20032;-72
2022/07/24 22:36:51;;;;;;;6.37;2.87;;;32.30;48.80;;;;;;10831316;33;20328;-72
2022/07/24 22:42:53;;;;;;;3.17;2.28;;;32.20;49.30;;;;;;10829424;33;20193;-72
2022/07/24 22:48:59;;;;;;;3.65;2.20;;;32.10;49.60;;;;;;10832846;32;20393;-72
2022/07/24 22:55:01;;;;;;;3.40;2.25;;;32.00;49.50;;;;;;10836110;32;20054;-72
2022/07/24 23:01:04;;;;;;;6.32;3.20;;;31.90;49.80;;;;;;10836061;32;20020;-72
2022/07/24 23:07:05;;;;;;;4.07;2.72;;;31.90;49.80;;;;;;10835617;32;20036;-72
2022/07/24 23:13:08;;;;;;;3.33;2.30;;;31.70;50.10;;;;;;10835517;32;20036;-72
2022/07/24 23:19:10;;;;;;;3.85;2.58;;;31.70;50.40;;;;;;10835571;32;20024;-72
2022/07/24 23:25:13;;;;;;;3.55;1.90;;;31.70;50.30;;;;;;10835208;32;20047;-72
2022/07/24 23:31:15;;;;;;;4.43;3.05;;;31.60;50.50;;;;;;10830963;32;20324;-72
2022/07/24 23:37:17;;;;;;;3.92;2.03;;;31.60;51.00;;;;;;10834788;32;20385;-72
2022/07/24 23:43:20;;;;;;;5.72;2.37;;;31.60;50.90;;;;;;10833754;32;20055;-72
2022/07/24 23:49:23;;;;;;;3.50;2.62;;;31.60;51.50;;;;;;10834361;32;20028;-72
2022/07/24 23:55:52;;;;;;;5.72;2.40;;;31.50;51.60;;;;;;10833371;32;20036;-72
